Thursday, July 24, 2014
10:47 UTC
  |  Log In   |  Register Free
Airport Search:

Faribault Municipal Airport
(KFBL)

Faribault Municipal Airport Diagram
No Airport Diagram Available

FAA data valid effective May 29, 2014 until July 24, 2014 (unless otherwise noted).

 
 
 
 
 
 
 
 
 
 
 
 
 
 

Current Aviation Weather for Faribault Municipal Airport (KFBL)

The most recent METAR observation for KFBL was updated at: 0934 UTC
METAR Summary (Translated METAR)
KFBL
240934Z AUTO 00000KT 10SM CLR 13/09 A3017 RMK AO2
KOWA
(12.5 nm SE from KFBL)
240935Z AUTO 11003KT 10SM CLR 13/12 A3017 RMK AO2
TAF
No TAF information found within 50 nm of KFBL
  Airport Weather Conditions for KFBL

 Current Weather at FBL
55° F
Fair
North winds at 0.0 mph
FBL NOAA Radar

Pressure: 30.17 in
Humidity: 77%
Wind: Calm
Dew Point: 48.2°F
Visibility: 10.00 mi


Airport Weather Forecast for KFBL

Translated METAR and TAF for KFBL
Translated METAR for KFBL (1040 UTC 24 July 2014)
found at http://aviationweather.gov/adds/metars/
 
METAR text: KFBL 241034Z AUTO 00000KT 10SM CLR 12/09 A3017 RMK AO2
Conditions at: KFBL (FARIBAULT MUNI , MN, US) observed 1034 UTC 24 July 2014
Temperature: 12.0°C (54°F)
Dewpoint: 9.0°C (48°F) [RH = 82%]
Pressure (altimeter): 30.17 inches Hg (1021.8 mb)
Winds: calm
Visibility: 10 or more miles (16+ km)
Ceiling: at least 12,000 feet AGL
Clouds: sky clear below 12,000 feet AGL
Weather: automated observation with no human augmentation;
there may or may not be significant weather present at this time
Translated TAF for KFBL

There is no translated TAF available for this airport

Find All Airport Services Find A Hotel Find A Rental Car Find A Golf Course Find A Restaurant $100 Hamburger



FBO's on the Field
FBO Company Facility Photos Services Transportation Aviation Fuel Prices: Prices include tax
Catering Weather Repair Courtesy Rental Type 100LL JetA JetA+ MOGAS 8087
 
Quality Aviation

This FBO has not yet been rated
FS:Independent
Last Updated: Jul-16
Login to update fuel prices
SS:
Contact Quality AviationMore FBO Information
 
Add another FBO Facility Photos Catering Weather Repair Courtesy Rental Type 100LL JetA JetA+ MOGAS 8087
Services Transportation Aviation Fuel Prices: Prices include tax


GlobalAir.com Airport Resource Center model-print
model-print
model-print
model-print